Time;durP1;ratioP1;P1;durP2;ratioP2;P2;SDS_P1;SDS_P2;PMS_P1;PMS_P2;Temp;Humidity;BMP_temperature;BMP_pressure;BME280_temperature;BME280_humidity;BME280_pressure;Samples;Min_cycle;Max_cycle;Signal;HPM_P1;HPM_P2
2023/01/23 00:01:12;;;;;;;43.38;26.92;;;-2.70;99.90;;;;;;5033525;28;20040;-49
2023/01/23 00:03:38;;;;;;;45.35;27.60;;;-2.70;99.90;;;;;;5033354;28;20366;-52
2023/01/23 00:06:07;;;;;;;42.63;25.42;;;-2.90;99.90;;;;;;5033326;28;20028;-50
2023/01/23 00:08:34;;;;;;;50.85;27.67;;;-3.10;99.90;;;;;;5033470;28;20112;-54
2023/01/23 00:11:07;;;;;;;41.05;25.92;;;-3.10;99.90;;;;;;5033204;28;20420;-50
2023/01/23 00:13:34;;;;;;;45.15;27.08;;;-3.20;99.90;;;;;;5032832;28;20087;-52
2023/01/23 00:16:06;;;;;;;43.35;27.73;;;-3.30;99.90;;;;;;5033009;28;20041;-52
2023/01/23 00:18:31;;;;;;;37.80;23.95;;;-3.20;99.90;;;;;;5033234;28;20116;-52
2023/01/23 00:20:57;;;;;;;46.25;26.92;;;-3.40;99.90;;;;;;5031703;28;20113;-51
2023/01/23 00:23:23;;;;;;;41.90;25.13;;;-3.50;99.90;;;;;;5033192;28;20032;-50
2023/01/23 00:25:49;;;;;;;43.97;26.90;;;-3.40;99.90;;;;;;5032993;28;20029;-53
2023/01/23 00:28:14;;;;;;;41.58;24.60;;;-3.50;99.90;;;;;;5033023;28;20469;-52
2023/01/23 00:30:40;;;;;;;41.03;23.30;;;-3.50;99.90;;;;;;5032892;28;20029;-50
2023/01/23 00:33:05;;;;;;;45.03;26.20;;;-3.50;99.90;;;;;;5032851;28;20026;-49
2023/01/23 00:35:34;;;;;;;39.80;24.98;;;-3.50;99.90;;;;;;5032785;28;20029;-49
2023/01/23 00:37:59;;;;;;;37.63;24.17;;;-3.50;99.90;;;;;;5031273;28;20465;-50
2023/01/23 00:40:25;;;;;;;41.65;24.88;;;-3.60;99.90;;;;;;5032869;28;20029;-50
2023/01/23 00:42:50;;;;;;;41.95;24.55;;;-3.70;99.90;;;;;;5031624;28;20037;-51
2023/01/23 00:45:16;;;;;;;41.97;25.08;;;-3.60;99.90;;;;;;5032194;28;20034;-52
2023/01/23 00:47:42;;;;;;;47.90;25.77;;;-3.70;99.90;;;;;;5031362;28;20432;-52
2023/01/23 00:50:08;;;;;;;44.35;26.10;;;-3.60;99.90;;;;;;5031194;28;20030;-52
2023/01/23 00:52:35;;;;;;;45.53;25.25;;;-3.60;99.90;;;;;;5031419;28;20045;-51
2023/01/23 00:55:01;;;;;;;40.60;24.33;;;-3.60;99.90;;;;;;5031369;28;20079;-52
2023/01/23 00:57:27;;;;;;;49.38;26.90;;;-3.50;99.90;;;;;;5031279;28;20025;-50
2023/01/23 00:59:52;;;;;;;38.05;23.58;;;-3.50;99.90;;;;;;5031105;28;20036;-55
2023/01/23 01:02:18;;;;;;;42.50;25.08;;;-3.40;99.90;;;;;;5030666;28;20009;-52
2023/01/23 01:04:44;;;;;;;43.67;26.52;;;-3.30;99.90;;;;;;5030921;28;20055;-50
2023/01/23 01:07:09;;;;;;;43.38;25.55;;;-3.20;99.90;;;;;;5031237;28;20025;-49
2023/01/23 01:09:35;;;;;;;48.20;25.63;;;-3.20;99.90;;;;;;5031175;28;20435;-50
2023/01/23 01:12:00;;;;;;;44.00;25.77;;;-3.20;99.90;;;;;;5031033;28;20067;-49
2023/01/23 01:14:26;;;;;;;44.95;27.27;;;-3.10;99.90;;;;;;5030846;28;20025;-52
2023/01/23 01:16:52;;;;;;;42.15;26.95;;;-3.10;99.90;;;;;;5030173;28;20025;-50
2023/01/23 01:19:18;;;;;;;53.88;27.50;;;-2.90;99.90;;;;;;5030582;28;20021;-50
2023/01/23 01:21:43;;;;;;;52.05;28.65;;;-2.90;99.90;;;;;;5030676;28;20033;-52
2023/01/23 01:24:09;;;;;;;50.78;28.52;;;-2.80;99.90;;;;;;5031073;28;20030;-52
2023/01/23 01:26:36;;;;;;;49.45;27.70;;;-2.70;99.90;;;;;;5031020;28;20048;-50
2023/01/23 01:29:02;;;;;;;51.85;27.48;;;-2.70;99.90;;;;;;5030609;28;20026;-48
2023/01/23 01:31:28;;;;;;;46.15;27.40;;;-2.60;99.90;;;;;;5030296;28;20021;-52
2023/01/23 01:33:54;;;;;;;50.45;28.15;;;-2.60;99.90;;;;;;5030040;28;20029;-49
2023/01/23 01:36:21;;;;;;;45.97;27.77;;;-2.50;99.90;;;;;;5030680;28;20034;-53
2023/01/23 01:38:47;;;;;;;51.17;29.15;;;-2.50;99.90;;;;;;5030512;28;20018;-55
2023/01/23 01:41:14;;;;;;;48.38;27.90;;;-2.50;99.90;;;;;;5030517;28;20457;-50
2023/01/23 01:43:40;;;;;;;43.63;27.10;;;-2.50;99.90;;;;;;5030549;28;20026;-53
2023/01/23 01:46:08;;;;;;;47.38;27.63;;;-2.50;99.90;;;;;;5030059;28;20099;-52
2023/01/23 01:48:37;;;;;;;54.80;28.52;;;-2.50;99.90;;;;;;5029197;28;20037;-54
2023/01/23 01:51:10;;;;;;;49.53;27.15;;;-2.40;99.90;;;;;;5030599;28;20184;-48
2023/01/23 01:53:37;;;;;;;51.38;29.67;;;-2.40;99.90;;;;;;5030556;28;20439;-50
2023/01/23 01:56:03;;;;;;;47.67;27.75;;;-2.40;99.90;;;;;;5028961;28;20499;-54
2023/01/23 01:58:29;;;;;;;50.40;27.52;;;-2.30;99.90;;;;;;5030304;28;20025;-49
2023/01/23 02:00:55;;;;;;;51.40;29.13;;;-2.30;99.90;;;;;;5030160;28;20037;-49
2023/01/23 02:03:23;;;;;;;47.28;28.55;;;-2.30;99.90;;;;;;5030521;28;20350;-49
2023/01/23 02:05:49;;;;;;;50.05;29.33;;;-2.30;99.90;;;;;;5029856;28;20496;-52
2023/01/23 02:08:22;;;;;;;48.95;29.58;;;-2.20;99.90;;;;;;5030320;28;20033;-51
2023/01/23 02:10:48;;;;;;;45.97;28.05;;;-2.30;99.90;;;;;;5030124;28;20047;-54
2023/01/23 02:13:27;;;;;;;46.72;27.95;;;-2.30;99.90;;;;;;5030203;28;20100;-50
2023/01/23 02:15:53;;;;;;;45.67;26.65;;;-2.20;99.90;;;;;;5030092;28;20033;-50
2023/01/23 02:18:20;;;;;;;46.58;27.95;;;-2.20;99.90;;;;;;5030272;28;20420;-49
2023/01/23 02:20:47;;;;;;;46.35;28.63;;;-2.20;99.90;;;;;;5028769;28;20064;-51
2023/01/23 02:23:49;;;;;;;45.03;26.88;;;-2.20;99.90;;;;;;5028800;28;20029;-51
2023/01/23 02:26:20;;;;;;;44.88;28.45;;;-2.20;99.90;;;;;;5030129;28;20029;-50
2023/01/23 02:28:51;;;;;;;46.45;27.73;;;-2.20;99.90;;;;;;5029924;28;20167;-49
2023/01/23 02:31:17;;;;;;;46.33;27.52;;;-2.20;99.90;;;;;;5031305;28;20229;-52
2023/01/23 02:33:46;;;;;;;47.85;28.20;;;-2.20;99.90;;;;;;5033920;28;20079;-53
2023/01/23 02:36:12;;;;;;;47.28;26.67;;;-2.20;99.90;;;;;;5033177;28;20018;-50
2023/01/23 02:39:03;;;;;;;44.78;28.02;;;-2.10;99.90;;;;;;5033710;28;20021;-51
2023/01/23 02:41:47;;;;;;;43.50;26.63;;;-2.10;99.90;;;;;;5033955;28;20032;-51
2023/01/23 02:44:26;;;;;;;54.33;31.00;;;-2.10;99.90;;;;;;5033680;28;20017;-53
2023/01/23 02:46:56;;;;;;;40.05;25.45;;;-2.10;99.90;;;;;;5033445;28;20132;-50
2023/01/23 02:49:22;;;;;;;48.40;26.08;;;-2.00;99.90;;;;;;5033769;28;20148;-53
2023/01/23 02:51:49;;;;;;;42.47;26.17;;;-2.00;99.90;;;;;;5033738;28;20100;-55
2023/01/23 02:54:15;;;;;;;47.08;27.13;;;-2.00;99.90;;;;;;5033382;28;20022;-51
2023/01/23 02:56:42;;;;;;;46.83;26.77;;;-2.00;99.90;;;;;;5033403;28;20382;-50
2023/01/23 03:01:52;;;;;;;48.35;27.67;;;-2.00;99.90;;;;;;5033425;28;20068;-49
2023/01/23 03:04:18;;;;;;;48.22;28.95;;;-2.00;99.90;;;;;;5033330;28;20021;-54
2023/01/23 03:06:44;;;;;;;51.03;29.23;;;-1.90;99.90;;;;;;5033319;28;20049;-50
2023/01/23 03:09:13;;;;;;;48.08;28.65;;;-1.90;99.90;;;;;;5032683;28;20025;-51
2023/01/23 03:11:40;;;;;;;49.75;29.50;;;-1.90;99.90;;;;;;5033289;28;20101;-51
2023/01/23 03:14:12;;;;;;;42.03;27.75;;;-1.80;99.90;;;;;;5031664;28;20523;-49
2023/01/23 03:16:39;;;;;;;49.63;28.20;;;-1.80;99.90;;;;;;5033181;28;20120;-54
2023/01/23 03:19:07;;;;;;;48.30;28.15;;;-1.80;99.90;;;;;;5032891;28;20495;-50
2023/01/23 03:21:36;;;;;;;46.33;27.23;;;-1.80;99.90;;;;;;5033002;28;20025;-49
2023/01/23 03:24:09;;;;;;;50.67;29.92;;;-1.80;99.90;;;;;;5032829;28;20018;-50
2023/01/23 03:26:38;;;;;;;43.63;26.80;;;-1.80;99.90;;;;;;5032377;28;20066;-54
2023/01/23 03:31:48;;;;;;;50.40;30.17;;;-1.80;99.90;;;;;;5033086;28;20028;-48
2023/01/23 03:34:16;;;;;;;51.45;29.45;;;-1.80;99.90;;;;;;5033032;28;20021;-51
2023/01/23 03:36:42;;;;;;;46.60;28.05;;;-1.80;99.90;;;;;;5032473;28;20053;-53
2023/01/23 03:41:53;;;;;;;44.90;27.63;;;-1.80;99.90;;;;;;5031727;28;20036;-49
2023/01/23 03:44:19;;;;;;;46.90;28.23;;;-1.80;99.90;;;;;;5032933;28;20018;-52
2023/01/23 03:46:50;;;;;;;47.85;27.92;;;-1.80;99.90;;;;;;5032123;28;20041;-49
2023/01/23 03:49:16;;;;;;;48.03;28.92;;;-1.90;99.90;;;;;;5031233;28;20029;-54
2023/01/23 03:51:42;;;;;;;47.35;27.60;;;-1.80;99.90;;;;;;5032522;28;20021;-49
2023/01/23 03:54:08;;;;;;;47.67;28.10;;;-1.80;99.90;;;;;;5032440;28;20017;-53
2023/01/23 03:56:33;;;;;;;49.30;27.38;;;-1.70;99.90;;;;;;5031318;28;20022;-49
2023/01/23 03:58:59;;;;;;;50.67;28.23;;;-1.70;99.90;;;;;;5032288;28;20068;-50
2023/01/23 04:01:25;;;;;;;43.13;26.88;;;-1.70;99.90;;;;;;5032322;28;20022;-51
2023/01/23 04:03:51;;;;;;;47.60;28.55;;;-1.70;99.90;;;;;;5031922;28;20495;-51
2023/01/23 04:06:17;;;;;;;42.70;25.98;;;-1.70;99.90;;;;;;5032425;28;20018;-50
2023/01/23 04:08:43;;;;;;;47.08;27.38;;;-1.70;99.90;;;;;;5032207;28;20095;-49
2023/01/23 04:11:10;;;;;;;48.20;28.10;;;-1.70;99.90;;;;;;5032060;28;20026;-51
2023/01/23 04:13:36;;;;;;;45.22;27.23;;;-1.70;99.90;;;;;;5031178;28;20541;-55
2023/01/23 04:16:02;;;;;;;52.95;28.63;;;-1.70;99.90;;;;;;5031726;28;20029;-50
2023/01/23 04:18:28;;;;;;;44.15;27.83;;;-1.60;99.90;;;;;;5032022;28;20033;-51
2023/01/23 04:20:54;;;;;;;48.95;29.30;;;-1.60;99.90;;;;;;5031927;28;20017;-52
2023/01/23 04:23:20;;;;;;;45.42;28.17;;;-1.50;99.90;;;;;;5031825;28;20037;-51
2023/01/23 04:25:46;;;;;;;41.78;25.90;;;-1.60;99.90;;;;;;5031591;28;20104;-49
2023/01/23 04:28:12;;;;;;;39.92;24.83;;;-1.60;99.90;;;;;;5031041;28;20260;-55
2023/01/23 04:30:37;;;;;;;47.67;28.42;;;-1.50;99.90;;;;;;5031220;28;20481;-54
2023/01/23 04:33:03;;;;;;;47.38;26.70;;;-1.50;99.90;;;;;;5031649;28;20032;-51
2023/01/23 04:35:29;;;;;;;41.63;25.13;;;-1.50;99.90;;;;;;5031626;28;20036;-49
2023/01/23 04:37:54;;;;;;;45.65;27.17;;;-1.50;99.90;;;;;;5031555;28;20552;-50
2023/01/23 04:40:20;;;;;;;43.20;27.45;;;-1.40;99.90;;;;;;5031376;28;20045;-50
2023/01/23 04:42:46;;;;;;;44.90;26.80;;;-1.50;99.90;;;;;;5031550;28;20416;-55
2023/01/23 04:45:11;;;;;;;50.15;26.95;;;-1.60;99.90;;;;;;5031506;28;20668;-48
2023/01/23 04:47:37;;;;;;;39.58;24.85;;;-1.50;99.90;;;;;;5031108;28;20053;-53
2023/01/23 04:50:04;;;;;;;45.72;26.63;;;-1.50;99.90;;;;;;5031020;28;20030;-56
2023/01/23 04:52:29;;;;;;;42.42;25.92;;;-1.40;99.90;;;;;;5031483;28;20041;-50
2023/01/23 04:54:55;;;;;;;38.97;25.27;;;-1.40;99.90;;;;;;5030446;28;20579;-49
2023/01/23 04:57:21;;;;;;;49.88;28.10;;;-1.40;99.90;;;;;;5031485;28;20091;-53
2023/01/23 04:59:47;;;;;;;48.25;27.60;;;-1.40;99.90;;;;;;5030694;28;20064;-50
2023/01/23 05:02:12;;;;;;;42.50;25.20;;;-1.40;99.90;;;;;;5031114;28;20049;-49
2023/01/23 05:04:38;;;;;;;43.92;25.73;;;-1.40;99.90;;;;;;5031247;28;20528;-54
2023/01/23 05:07:03;;;;;;;45.05;26.45;;;-1.50;99.90;;;;;;5029799;28;20076;-51
2023/01/23 05:09:29;;;;;;;43.80;25.40;;;-1.50;99.90;;;;;;5030960;28;20443;-51
2023/01/23 05:11:55;;;;;;;47.25;27.30;;;-1.50;99.90;;;;;;5029310;28;20100;-51
2023/01/23 05:14:23;;;;;;;49.00;28.27;;;-1.60;99.90;;;;;;5031120;28;20029;-50
2023/01/23 05:16:48;;;;;;;44.30;26.45;;;-1.60;99.90;;;;;;5030829;28;20170;-51
2023/01/23 05:19:14;;;;;;;44.78;26.42;;;-1.70;99.90;;;;;;5030856;28;20109;-51
2023/01/23 05:21:40;;;;;;;47.80;26.77;;;-1.60;99.90;;;;;;5029672;28;20041;-51
2023/01/23 05:24:06;;;;;;;43.08;25.77;;;-1.60;99.90;;;;;;5030895;28;20074;-53
2023/01/23 05:26:33;;;;;;;47.15;28.48;;;-1.60;99.90;;;;;;5030214;28;20468;-50
2023/01/23 05:28:59;;;;;;;48.28;27.95;;;-1.60;99.90;;;;;;5030438;28;20061;-56
2023/01/23 05:31:25;;;;;;;46.47;27.92;;;-1.70;99.90;;;;;;5029438;28;20079;-50
2023/01/23 05:33:51;;;;;;;43.60;28.73;;;-1.70;99.90;;;;;;5030219;28;20091;-49
2023/01/23 05:36:16;;;;;;;45.25;28.33;;;-1.70;99.90;;;;;;5030716;28;20028;-51
2023/01/23 05:38:42;;;;;;;46.97;29.10;;;-1.60;99.90;;;;;;5030453;28;20503;-50
2023/01/23 05:41:07;;;;;;;47.45;27.80;;;-1.60;99.90;;;;;;5029276;28;20111;-50
2023/01/23 05:43:33;;;;;;;50.28;29.02;;;-1.50;99.90;;;;;;5030556;28;20108;-54
2023/01/23 05:46:00;;;;;;;47.47;28.77;;;-1.50;99.90;;;;;;5030712;28;20078;-50
2023/01/23 05:48:26;;;;;;;43.25;27.33;;;-1.50;99.90;;;;;;5029793;28;20036;-52
2023/01/23 05:50:52;;;;;;;45.63;27.70;;;-1.50;99.90;;;;;;5030738;28;20395;-50
2023/01/23 05:53:17;;;;;;;46.00;27.05;;;-1.40;99.90;;;;;;5030393;28;20029;-53
2023/01/23 05:55:43;;;;;;;44.15;25.85;;;-1.40;99.90;;;;;;5030255;28;20087;-49
2023/01/23 05:58:09;;;;;;;49.20;28.67;;;-1.40;99.90;;;;;;5030203;28;20079;-49
2023/01/23 06:00:34;;;;;;;44.03;26.23;;;-1.40;99.90;;;;;;5030379;28;20076;-49
2023/01/23 06:03:00;;;;;;;48.10;27.63;;;-1.30;99.90;;;;;;5029467;28;20513;-50
2023/01/23 06:05:26;;;;;;;45.75;27.63;;;-1.30;99.90;;;;;;5029081;28;20500;-51
2023/01/23 06:07:52;;;;;;;45.85;27.23;;;-1.30;99.90;;;;;;5029903;28;20591;-50
2023/01/23 06:10:18;;;;;;;45.28;27.30;;;-1.40;99.90;;;;;;5030434;28;20041;-50
2023/01/23 06:12:43;;;;;;;46.25;27.35;;;-1.40;99.90;;;;;;5030049;28;20558;-49
2023/01/23 06:15:09;;;;;;;57.22;30.90;;;-1.30;99.90;;;;;;5030018;28;20550;-50
2023/01/23 06:17:35;;;;;;;52.63;27.50;;;-1.30;99.90;;;;;;5029828;28;20028;-55
2023/01/23 06:20:01;;;;;;;53.35;29.48;;;-1.30;99.90;;;;;;5029110;28;20428;-51
2023/01/23 06:22:27;;;;;;;61.75;31.25;;;-1.20;99.90;;;;;;5028675;28;20424;-52
2023/01/23 06:24:52;;;;;;;53.88;30.90;;;-1.20;99.90;;;;;;5030026;28;20079;-52
2023/01/23 06:27:18;;;;;;;61.97;33.70;;;-1.10;99.90;;;;;;5030295;28;20029;-49
2023/01/23 06:29:44;;;;;;;62.38;35.47;;;-1.10;99.90;;;;;;5030028;28;20485;-51
2023/01/23 06:32:09;;;;;;;55.45;31.50;;;-1.00;99.90;;;;;;5029829;28;20418;-49
2023/01/23 06:34:35;;;;;;;58.85;32.28;;;-0.90;99.90;;;;;;5029418;28;20034;-50
2023/01/23 06:37:01;;;;;;;54.47;30.83;;;-1.00;99.90;;;;;;5028837;28;20531;-51
2023/01/23 06:39:29;;;;;;;54.55;32.33;;;-0.90;99.90;;;;;;5029669;28;20056;-51
2023/01/23 06:41:55;;;;;;;63.38;34.22;;;-0.90;99.90;;;;;;5029329;28;20049;-53
2023/01/23 06:44:21;;;;;;;58.58;33.15;;;-0.90;99.90;;;;;;5029532;28;20026;-51
2023/01/23 06:46:46;;;;;;;59.90;32.95;;;-0.90;99.90;;;;;;5028809;28;20052;-50
2023/01/23 06:49:12;;;;;;;55.30;31.80;;;-0.90;99.90;;;;;;5029952;28;20021;-50
2023/01/23 06:51:37;;;;;;;59.60;33.67;;;-0.90;99.90;;;;;;5028765;28;20049;-59
2023/01/23 06:54:03;;;;;;;62.15;32.72;;;-0.90;99.90;;;;;;5028993;28;20025;-49
2023/01/23 06:56:29;;;;;;;62.50;33.53;;;-0.90;99.90;;;;;;5029359;28;20084;-52
2023/01/23 06:58:54;;;;;;;61.60;35.50;;;-0.90;99.90;;;;;;5029570;28;20472;-51
2023/01/23 07:01:21;;;;;;;63.90;34.65;;;-0.90;99.90;;;;;;5029789;28;20021;-51
2023/01/23 07:03:46;;;;;;;63.03;38.47;;;-0.80;99.90;;;;;;5029339;28;20032;-50
2023/01/23 07:06:14;;;;;;;86.80;41.03;;;-0.80;99.90;;;;;;5028422;28;20033;-49
2023/01/23 07:08:40;;;;;;;75.60;44.85;;;-0.80;99.90;;;;;;5028789;28;20448;-56
2023/01/23 07:11:07;;;;;;;339.30;153.57;;;-0.80;99.90;;;;;;5029420;28;20121;-50
2023/01/23 07:13:33;;;;;;;83.35;47.38;;;-0.80;99.90;;;;;;5029463;28;20079;-55
2023/01/23 07:15:58;;;;;;;67.65;39.65;;;-0.80;99.90;;;;;;5028913;28;20396;-55
2023/01/23 07:18:27;;;;;;;64.72;36.30;;;-0.80;99.90;;;;;;5032843;28;20025;-56
2023/01/23 07:20:53;;;;;;;63.72;34.58;;;-0.80;99.90;;;;;;5033379;28;20428;-49
2023/01/23 07:23:19;;;;;;;65.07;34.28;;;-0.80;99.90;;;;;;5033947;28;20640;-51
2023/01/23 07:25:45;;;;;;;65.88;36.72;;;-0.80;99.90;;;;;;5033671;28;20045;-52
2023/01/23 07:28:11;;;;;;;68.05;36.50;;;-0.80;99.90;;;;;;5034125;28;20423;-51
2023/01/23 07:30:37;;;;;;;80.35;51.70;;;-0.80;99.90;;;;;;5034257;28;20476;-64
2023/01/23 07:33:03;;;;;;;80.38;44.28;;;-0.70;99.90;;;;;;5033869;28;20034;-54
2023/01/23 07:35:29;;;;;;;75.75;40.40;;;-0.70;99.90;;;;;;5033458;28;20036;-53
2023/01/23 07:37:56;;;;;;;73.75;40.53;;;-0.70;99.90;;;;;;5033335;28;20021;-56
2023/01/23 07:40:21;;;;;;;63.30;36.67;;;-0.70;99.90;;;;;;5032273;28;20034;-51
2023/01/23 07:42:47;;;;;;;68.78;37.92;;;-0.70;99.90;;;;;;5033505;28;20338;-50
2023/01/23 07:45:13;;;;;;;67.32;35.22;;;-0.60;99.90;;;;;;5033719;28;20026;-51
2023/01/23 07:47:39;;;;;;;74.03;37.78;;;-0.60;99.90;;;;;;5033680;28;20518;-56
2023/01/23 07:50:07;;;;;;;67.68;35.08;;;-0.50;99.90;;;;;;5033908;28;20029;-52
2023/01/23 07:52:33;;;;;;;65.32;36.50;;;-0.50;99.90;;;;;;5032519;28;20048;-52
2023/01/23 07:54:58;;;;;;;71.45;39.20;;;-0.50;99.90;;;;;;5033508;28;20030;-54
2023/01/23 07:57:24;;;;;;;60.70;33.83;;;-0.40;99.90;;;;;;5033388;28;20116;-52
2023/01/23 07:59:49;;;;;;;61.42;32.80;;;-0.30;99.90;;;;;;5033618;28;20511;-55
2023/01/23 08:02:15;;;;;;;60.90;32.15;;;-0.30;99.90;;;;;;5033714;28;20025;-50
2023/01/23 08:04:41;;;;;;;53.45;32.40;;;-0.30;99.90;;;;;;5033512;28;20385;-56
2023/01/23 08:07:06;;;;;;;56.10;30.63;;;-0.20;99.90;;;;;;5033535;28;20048;-52
2023/01/23 08:09:32;;;;;;;58.22;33.35;;;-0.20;99.90;;;;;;5033402;28;20026;-56
2023/01/23 08:11:57;;;;;;;57.58;32.05;;;-0.10;99.90;;;;;;5033203;28;20037;-56
2023/01/23 08:14:23;;;;;;;56.97;31.92;;;0.10;99.90;;;;;;5033037;28;20109;-54
2023/01/23 08:16:50;;;;;;;63.20;35.15;;;0.10;99.90;;;;;;5033196;28;20030;-54
2023/01/23 08:19:17;;;;;;;56.05;32.33;;;0.10;99.90;;;;;;5033376;28;20022;-56
2023/01/23 08:21:43;;;;;;;55.88;31.70;;;0.10;99.90;;;;;;5033213;28;20349;-57
2023/01/23 08:24:11;;;;;;;56.28;31.73;;;0.20;99.90;;;;;;5032875;28;20093;-54
2023/01/23 08:26:37;;;;;;;54.80;31.05;;;0.30;99.90;;;;;;5033130;28;20049;-55
2023/01/23 08:29:02;;;;;;;52.08;29.75;;;0.30;99.90;;;;;;5031025;28;20064;-55
2023/01/23 08:31:28;;;;;;;55.65;29.83;;;0.30;99.90;;;;;;5031173;28;20570;-50
2023/01/23 08:33:54;;;;;;;55.83;31.58;;;0.30;99.90;;;;;;5032448;28;20418;-50
2023/01/23 08:36:20;;;;;;;52.55;30.25;;;0.30;99.90;;;;;;5032500;28;20042;-51
2023/01/23 08:38:46;;;;;;;53.88;30.98;;;0.30;99.90;;;;;;5031430;28;20030;-55
2023/01/23 08:41:11;;;;;;;56.20;31.45;;;0.40;99.90;;;;;;5032792;28;20503;-52
2023/01/23 08:43:40;;;;;;;53.20;31.02;;;0.50;99.90;;;;;;5032114;28;20488;-53
2023/01/23 08:46:06;;;;;;;51.97;29.10;;;0.60;99.90;;;;;;5031864;28;20049;-55
2023/01/23 08:48:33;;;;;;;50.33;28.33;;;0.60;99.90;;;;;;5032531;28;20103;-56
2023/01/23 08:51:01;;;;;;;51.42;29.40;;;0.70;99.90;;;;;;5030995;28;20567;-54
2023/01/23 08:53:27;;;;;;;47.78;27.73;;;0.70;99.90;;;;;;5032373;28;20030;-52
2023/01/23 08:55:57;;;;;;;59.00;29.00;;;0.70;99.90;;;;;;5032234;28;20022;-53
2023/01/23 08:58:22;;;;;;;48.47;29.52;;;0.80;99.90;;;;;;5032632;28;20021;-52
2023/01/23 09:00:48;;;;;;;51.22;28.92;;;0.80;99.90;;;;;;5031745;28;20036;-56
2023/01/23 09:03:14;;;;;;;50.72;28.13;;;0.70;99.90;;;;;;5032498;28;20025;-52
2023/01/23 09:05:39;;;;;;;55.00;29.13;;;0.70;99.90;;;;;;5030982;28;20033;-53
2023/01/23 09:08:05;;;;;;;47.63;29.25;;;0.70;99.90;;;;;;5030816;28;20083;-54
2023/01/23 09:10:30;;;;;;;51.33;28.00;;;0.80;99.90;;;;;;5032312;28;20053;-55
2023/01/23 09:12:56;;;;;;;51.45;30.83;;;0.80;99.90;;;;;;5032224;28;20428;-57
2023/01/23 09:15:22;;;;;;;48.25;27.92;;;0.90;99.90;;;;;;5032156;28;20029;-51
2023/01/23 09:17:48;;;;;;;48.75;28.58;;;0.90;99.90;;;;;;5032017;28;20101;-49
2023/01/23 09:20:14;;;;;;;48.92;28.90;;;0.90;99.90;;;;;;5032279;28;20056;-54
2023/01/23 09:22:40;;;;;;;45.47;27.48;;;1.00;99.90;;;;;;5032218;28;20038;-52
2023/01/23 09:25:07;;;;;;;46.25;28.98;;;0.90;99.90;;;;;;5032193;28;20040;-53
2023/01/23 09:27:32;;;;;;;42.08;26.75;;;0.80;99.90;;;;;;5031630;28;20104;-52
2023/01/23 09:29:58;;;;;;;39.63;25.35;;;0.80;99.90;;;;;;5031856;28;20454;-53
2023/01/23 09:32:24;;;;;;;44.10;28.75;;;0.90;99.90;;;;;;5031549;28;20037;-50
2023/01/23 09:34:49;;;;;;;50.05;31.73;;;0.90;99.90;;;;;;5031634;28;20060;-56
2023/01/23 09:37:16;;;;;;;44.83;28.52;;;1.00;99.90;;;;;;5032006;28;20033;-56
2023/01/23 09:39:42;;;;;;;45.60;29.15;;;0.90;99.90;;;;;;5031307;28;20544;-53
2023/01/23 09:42:16;;;;;;;49.03;31.13;;;1.10;99.90;;;;;;5031749;28;20087;-53
2023/01/23 09:44:56;;;;;;;56.10;36.47;;;1.00;99.90;;;;;;5031738;28;20040;-51
2023/01/23 09:47:32;;;;;;;50.92;31.55;;;1.10;99.90;;;;;;5031348;28;20045;-52
2023/01/23 09:50:26;;;;;;;43.60;28.23;;;1.20;99.90;;;;;;5031157;28;20025;-53
2023/01/23 09:53:19;;;;;;;45.97;26.58;;;1.20;99.90;;;;;;5030377;28;20099;-54
2023/01/23 09:55:52;;;;;;;59.53;32.90;;;1.30;99.90;;;;;;5031022;28;20034;-53
2023/01/23 09:58:35;;;;;;;44.50;27.80;;;1.30;99.90;;;;;;5031697;28;20080;-55
2023/01/23 10:01:01;;;;;;;72.85;45.38;;;1.40;99.90;;;;;;5031489;28;20354;-52
2023/01/23 10:03:30;;;;;;;61.83;35.28;;;1.50;99.90;;;;;;5031313;28;20017;-51
2023/01/23 10:06:17;;;;;;;44.30;28.80;;;1.60;99.90;;;;;;5031133;28;20118;-54
2023/01/23 10:08:57;;;;;;;48.78;30.73;;;1.50;99.90;;;;;;5031285;28;20029;-55
2023/01/23 10:11:40;;;;;;;46.20;27.17;;;1.50;99.90;;;;;;5031519;28;20025;-51
2023/01/23 10:14:27;;;;;;;42.85;26.00;;;1.40;99.90;;;;;;5031221;28;20026;-55
2023/01/23 10:16:59;;;;;;;43.35;28.15;;;1.40;99.90;;;;;;5031181;28;20048;-51
2023/01/23 10:20:01;;;;;;;52.10;29.77;;;1.60;99.90;;;;;;5030869;28;20025;-52
2023/01/23 10:22:55;;;;;;;45.90;27.08;;;1.50;99.90;;;;;;5030932;28;20022;-56
2023/01/23 10:25:27;;;;;;;53.15;28.40;;;1.60;99.90;;;;;;5030495;28;20033;-55
2023/01/23 10:27:59;;;;;;;48.50;27.85;;;1.70;99.90;;;;;;5030672;28;20080;-52
2023/01/23 10:30:32;;;;;;;45.67;28.20;;;1.70;99.90;;;;;;5030581;28;20112;-55
2023/01/23 10:33:11;;;;;;;46.65;26.70;;;1.70;99.90;;;;;;5031088;28;20029;-56
2023/01/23 10:35:54;;;;;;;64.97;32.72;;;1.70;99.90;;;;;;5031323;28;20026;-52
2023/01/23 10:38:32;;;;;;;70.55;37.90;;;1.70;99.90;;;;;;5030075;28;20026;-52
2023/01/23 10:41:13;;;;;;;55.03;33.17;;;1.70;99.90;;;;;;5031229;28;20034;-54
2023/01/23 10:43:44;;;;;;;67.57;37.65;;;1.80;99.90;;;;;;5030620;28;20020;-55
2023/01/23 10:46:25;;;;;;;104.22;50.97;;;1.70;99.90;;;;;;5030821;28;20041;-53
2023/01/23 10:48:52;;;;;;;89.25;44.00;;;1.70;99.90;;;;;;5031036;28;20033;-51
2023/01/23 10:51:30;;;;;;;49.88;31.38;;;2.00;99.90;;;;;;5031185;28;20034;-56
2023/01/23 10:54:04;;;;;;;55.85;29.58;;;2.00;99.90;;;;;;5034567;28;20040;-55
2023/01/23 10:56:30;;;;;;;;;;;2.10;99.90;;;;;;5035343;28;20024;-54
2023/01/23 10:58:59;;;;;;;43.50;27.45;;;2.20;99.90;;;;;;5034841;28;19905;-50
2023/01/23 11:01:30;;;;;;;44.95;26.45;;;2.10;99.90;;;;;;5034875;28;20014;-53
2023/01/23 11:03:56;;;;;;;43.22;28.42;;;2.10;99.90;;;;;;5034645;28;20017;-52
2023/01/23 11:06:24;;;;;;;50.78;28.88;;;2.00;99.90;;;;;;5034804;28;20050;-55
2023/01/23 11:08:56;;;;;;;44.70;25.95;;;2.20;99.90;;;;;;5034524;28;20104;-55
2023/01/23 11:11:25;;;;;;;42.92;26.75;;;2.40;99.90;;;;;;5034689;28;20049;-52
2023/01/23 11:14:03;;;;;;;62.50;27.10;;;2.40;99.90;;;;;;5034483;28;20021;-52
2023/01/23 11:16:29;;;;;;;49.35;26.65;;;2.20;99.90;;;;;;5034453;28;20032;-53
2023/01/23 11:19:16;;;;;;;44.67;28.20;;;2.20;99.90;;;;;;5034397;28;20484;-54
2023/01/23 11:21:59;;;;;;;48.45;27.40;;;2.30;99.90;;;;;;5034450;28;20036;-52
2023/01/23 11:24:24;;;;;;;50.17;30.55;;;2.30;99.90;;;;;;5034400;28;20405;-54
2023/01/23 11:27:16;;;;;;;49.78;28.55;;;2.20;99.90;;;;;;5034123;28;20034;-54
2023/01/23 11:29:47;;;;;;;48.67;28.95;;;2.50;99.90;;;;;;5030836;28;20050;-50
2023/01/23 11:32:14;;;;;;;50.28;29.60;;;2.40;99.90;;;;;;5034253;28;20025;-53
2023/01/23 11:34:46;;;;;;;44.72;27.63;;;2.30;99.90;;;;;;5034014;28;20373;-53
2023/01/23 11:37:23;;;;;;;49.00;28.83;;;2.40;99.90;;;;;;5032788;28;20079;-50
2023/01/23 11:40:06;;;;;;;50.72;28.50;;;2.30;99.90;;;;;;5033580;28;20052;-57
2023/01/23 11:42:34;;;;;;;49.60;29.58;;;2.10;99.90;;;;;;5033930;28;20025;-54
2023/01/23 11:45:00;;;;;;;53.28;29.50;;;2.00;99.90;;;;;;5033886;28;20034;-55
2023/01/23 11:47:45;;;;;;;55.25;31.30;;;1.90;99.90;;;;;;5033864;28;20041;-53
2023/01/23 11:50:26;;;;;;;51.38;30.08;;;2.00;99.90;;;;;;5033937;28;20022;-52
2023/01/23 11:53:27;;;;;;;52.28;29.98;;;1.80;99.90;;;;;;5033696;28;20025;-52
2023/01/23 11:56:05;;;;;;;46.92;29.02;;;1.90;99.90;;;;;;5033162;28;20114;-55
2023/01/23 11:59:02;;;;;;;51.10;29.48;;;2.20;99.90;;;;;;5033614;28;20037;-52
2023/01/23 12:02:10;;;;;;;63.50;33.35;;;2.10;99.90;;;;;;5033774;28;20070;-54
2023/01/23 12:04:39;;;;;;;50.95;29.20;;;2.00;99.90;;;;;;5010898;28;20445;-53
2023/01/23 12:07:19;;;;;;;66.43;31.42;;;2.20;99.90;;;;;;5011121;28;20068;-53
2023/01/23 12:10:16;;;;;;;56.50;28.73;;;2.10;99.90;;;;;;5024789;28;20030;-52
2023/01/23 12:12:51;;;;;;;49.80;28.70;;;1.80;99.90;;;;;;5033480;28;20033;-53
2023/01/23 12:15:37;;;;;;;51.85;29.00;;;1.80;99.90;;;;;;5033264;28;20033;-51
2023/01/23 12:18:21;;;;;;;51.70;29.63;;;1.80;99.90;;;;;;5033246;28;20380;-51
2023/01/23 12:21:08;;;;;;;53.00;28.85;;;1.70;99.90;;;;;;5033292;28;20029;-53
2023/01/23 12:23:50;;;;;;;54.65;29.77;;;1.70;99.90;;;;;;5033267;28;20061;-57
2023/01/23 12:26:19;;;;;;;49.42;28.48;;;1.80;99.90;;;;;;5033449;28;20021;-52
2023/01/23 12:29:14;;;;;;;49.17;29.33;;;1.80;99.90;;;;;;5032925;28;20056;-57
2023/01/23 12:31:55;;;;;;;52.70;29.38;;;1.80;99.90;;;;;;5032318;28;20026;-55
2023/01/23 12:34:44;;;;;;;56.45;30.13;;;1.80;99.90;;;;;;5033143;28;20652;-54
2023/01/23 12:37:43;;;;;;;56.97;30.48;;;1.60;99.90;;;;;;5032926;28;20026;-53
2023/01/23 12:40:21;;;;;;;57.92;30.90;;;1.60;99.90;;;;;;5032951;28;20028;-51
2023/01/23 12:43:04;;;;;;;52.53;29.85;;;1.50;99.90;;;;;;5032735;28;20018;-51
2023/01/23 12:45:31;;;;;;;55.08;29.80;;;1.50;99.90;;;;;;5032719;28;20515;-55
2023/01/23 12:48:18;;;;;;;55.90;29.77;;;1.60;99.90;;;;;;5032514;28;20034;-55
2023/01/23 12:51:00;;;;;;;61.42;32.85;;;1.60;99.90;;;;;;5031324;28;20488;-54